Time;durP1;ratioP1;P1;durP2;ratioP2;P2;SDS_P1;SDS_P2;PMS_P1;PMS_P2;Temp;Humidity;BMP_temperature;BMP_pressure;BME280_temperature;BME280_humidity;BME280_pressure;Samples;Min_cycle;Max_cycle;Signal;HPM_P1;HPM_P2
2021/05/11 00:00:34;;;;;;;8.53;8.13;;;23.70;73.50;;;;;;3566428;40;20489;-56
2021/05/11 00:03:01;;;;;;;8.80;8.50;;;23.70;73.50;;;;;;3566676;40;20524;-56
2021/05/11 00:05:30;;;;;;;8.60;8.30;;;23.70;73.50;;;;;;3567001;40;20479;-56
2021/05/11 00:07:58;;;;;;;8.70;8.27;;;23.70;73.60;;;;;;3567726;40;20528;-54
2021/05/11 00:10:27;;;;;;;8.77;8.30;;;23.70;73.60;;;;;;3567113;40;20482;-56
2021/05/11 00:12:57;;;;;;;9.23;8.73;;;23.70;73.50;;;;;;3566392;40;20487;-57
2021/05/11 00:15:24;;;;;;;8.93;8.53;;;23.70;73.50;;;;;;3565744;40;20961;-55
2021/05/11 00:17:51;;;;;;;8.40;8.00;;;23.70;73.50;;;;;;3565744;40;20570;-56
2021/05/11 00:20:19;;;;;;;8.83;8.43;;;23.70;73.50;;;;;;3566052;40;20502;-56
2021/05/11 00:22:46;;;;;;;9.37;8.87;;;23.60;73.40;;;;;;3566508;40;20493;-57
2021/05/11 00:25:14;;;;;;;9.17;8.70;;;23.60;73.40;;;;;;3566906;40;20487;-56
2021/05/11 00:27:42;;;;;;;9.18;8.65;;;23.70;73.50;;;;;;3566698;40;20839;-57
2021/05/11 00:30:11;;;;;;;8.83;8.33;;;23.60;73.40;;;;;;3567199;40;20763;-55
2021/05/11 00:32:38;;;;;;;9.20;8.70;;;23.70;73.50;;;;;;3565173;40;20484;-54
2021/05/11 00:35:07;;;;;;;8.40;8.10;;;23.60;73.40;;;;;;3566455;40;20278;-55
2021/05/11 00:37:36;;;;;;;9.27;8.60;;;23.60;73.30;;;;;;3567177;40;20488;-54
2021/05/11 00:40:05;;;;;;;8.87;8.57;;;23.60;73.30;;;;;;3558180;40;20485;-56
2021/05/11 00:42:33;;;;;;;9.47;8.93;;;23.60;73.30;;;;;;3566981;40;20871;-55
2021/05/11 00:45:00;;;;;;;9.17;8.80;;;23.60;73.20;;;;;;3566946;40;20489;-51
2021/05/11 00:47:28;;;;;;;9.90;9.43;;;23.60;73.30;;;;;;3566682;40;20510;-52
2021/05/11 00:49:56;;;;;;;9.50;9.00;;;23.60;73.30;;;;;;3567048;40;20504;-49
2021/05/11 00:52:24;;;;;;;9.53;9.13;;;23.60;73.30;;;;;;3565741;40;20534;-51
2021/05/11 00:54:52;;;;;;;9.20;8.80;;;23.60;73.30;;;;;;3567012;40;20483;-50
2021/05/11 00:57:19;;;;;;;9.50;9.03;;;23.60;73.30;;;;;;3565876;40;20530;-51
2021/05/11 00:59:46;;;;;;;9.60;9.20;;;23.60;73.30;;;;;;3566892;40;20585;-50
2021/05/11 01:02:14;;;;;;;9.67;9.27;;;23.60;73.30;;;;;;3566134;40;20488;-49
2021/05/11 01:04:41;;;;;;;9.57;9.18;;;23.60;73.30;;;;;;3566110;40;20474;-51
2021/05/11 01:07:09;;;;;;;9.37;8.97;;;23.60;74.10;;;;;;3566577;40;20233;-49
2021/05/11 01:09:36;;;;;;;9.52;9.18;;;23.60;73.40;;;;;;3566060;40;20510;-54
2021/05/11 01:12:05;;;;;;;9.23;8.83;;;23.60;73.40;;;;;;3565703;40;20230;-56
2021/05/11 01:14:32;;;;;;;9.47;8.97;;;23.60;73.40;;;;;;3565780;40;21081;-56
2021/05/11 01:17:01;;;;;;;9.07;8.67;;;23.60;73.30;;;;;;3566884;40;20488;-56
2021/05/11 01:19:38;;;;;;;9.03;8.73;;;23.60;73.30;;;;;;3566811;40;20842;-57
2021/05/11 01:22:22;;;;;;;9.10;8.70;;;23.60;73.30;;;;;;3566545;40;20487;-56
2021/05/11 01:24:52;;;;;;;8.83;8.43;;;23.60;73.30;;;;;;3566211;40;20467;-53
2021/05/11 01:27:32;;;;;;;9.30;8.90;;;23.60;73.30;;;;;;3566701;40;20491;-56
2021/05/11 01:30:11;;;;;;;9.40;8.90;;;23.60;73.30;;;;;;3568246;40;20480;-55
2021/05/11 01:33:06;;;;;;;9.37;8.90;;;23.60;73.30;;;;;;3567852;40;20894;-54
2021/05/11 01:44:02;;;;;;;8.73;8.50;;;23.60;73.30;;;;;;3567351;40;20476;-56
2021/05/11 01:49:23;;;;;;;10.00;9.50;;;23.60;73.30;;;;;;3558307;40;20580;-57
2021/05/11 01:54:47;;;;;;;9.73;9.13;;;23.60;73.30;;;;;;3568116;40;20479;-55
2021/05/11 01:57:47;;;;;;;9.07;8.67;;;23.60;73.40;;;;;;3567712;40;20633;-57
2021/05/11 02:17:55;;;;;;;8.68;8.38;;;23.60;73.40;;;;;;3558254;40;20856;-57
2021/05/11 02:22:43;;;;;;;9.10;8.80;;;23.60;73.40;;;;;;3567555;40;20906;-56
2021/05/11 02:25:13;;;;;;;9.20;8.90;;;23.50;73.30;;;;;;3558002;40;20481;-55
2021/05/11 02:27:41;;;;;;;9.70;9.30;;;23.50;73.30;;;;;;3567360;40;20584;-56
2021/05/11 02:30:10;;;;;;;9.10;8.60;;;23.50;73.40;;;;;;3566954;40;20316;-53
2021/05/11 02:32:38;;;;;;;9.00;8.60;;;23.50;73.40;;;;;;3567733;40;20500;-52
2021/05/11 02:35:08;;;;;;;9.13;8.77;;;23.50;73.40;;;;;;3567162;40;20653;-52
2021/05/11 02:37:35;;;;;;;9.07;8.77;;;23.50;73.40;;;;;;3567806;40;20559;-55
2021/05/11 02:40:06;;;;;;;8.90;8.50;;;23.50;73.30;;;;;;3567693;40;20492;-53
2021/05/11 02:42:33;;;;;;;8.93;8.63;;;23.50;73.30;;;;;;3567074;40;20566;-56
2021/05/11 02:45:02;;;;;;;9.23;8.60;;;23.50;73.30;;;;;;3566793;40;20480;-52
2021/05/11 02:47:29;;;;;;;8.90;8.60;;;23.50;73.40;;;;;;3566974;40;20490;-56
2021/05/11 02:50:03;;;;;;;9.20;8.90;;;23.50;73.40;;;;;;3565955;40;20514;-55
2021/05/11 02:52:30;;;;;;;9.77;9.43;;;23.50;73.40;;;;;;3567632;40;20501;-55
2021/05/11 02:54:56;;;;;;;9.63;9.23;;;23.50;74.10;;;;;;3567023;40;20490;-56
2021/05/11 02:57:23;;;;;;;9.43;8.98;;;23.50;73.30;;;;;;3559113;40;20493;-56
2021/05/11 02:59:54;;;;;;;9.57;9.17;;;23.50;73.40;;;;;;3557009;40;20317;-57
2021/05/11 03:02:22;;;;;;;9.10;8.80;;;23.50;73.40;;;;;;3556206;40;20757;-56
2021/05/11 03:04:50;;;;;;;9.10;8.80;;;23.50;73.40;;;;;;3556200;40;20517;-55
2021/05/11 03:07:17;;;;;;;9.57;9.20;;;23.50;73.40;;;;;;3557084;40;20491;-56
2021/05/11 03:09:45;;;;;;;9.23;8.93;;;23.50;73.40;;;;;;3556639;40;20477;-56
2021/05/11 03:12:11;;;;;;;9.10;8.80;;;23.50;73.40;;;;;;3555879;40;20484;-56
2021/05/11 03:14:39;;;;;;;9.60;9.30;;;23.50;74.10;;;;;;3556606;40;20485;-56
2021/05/11 03:17:05;;;;;;;9.57;9.18;;;23.50;73.40;;;;;;3557056;40;20479;-57
2021/05/11 03:19:33;;;;;;;10.40;9.90;;;23.50;73.40;;;;;;3557151;40;20229;-55
2021/05/11 03:22:01;;;;;;;10.40;9.93;;;23.50;73.40;;;;;;3557060;40;20745;-55
2021/05/11 03:24:31;;;;;;;9.97;9.60;;;23.50;73.40;;;;;;3556458;40;20862;-53
2021/05/11 03:26:57;;;;;;;9.82;9.52;;;23.50;73.40;;;;;;3557574;40;20490;-56
2021/05/11 03:29:25;;;;;;;9.40;9.10;;;23.50;73.40;;;;;;3557266;40;20796;-56
2021/05/11 03:31:51;;;;;;;10.00;9.47;;;23.50;73.40;;;;;;3557103;40;20482;-54
2021/05/11 03:34:19;;;;;;;10.00;9.70;;;23.50;73.40;;;;;;3556455;40;20481;-55
2021/05/11 03:36:47;;;;;;;10.37;9.97;;;23.50;73.30;;;;;;3556026;40;21090;-54
2021/05/11 03:39:15;;;;;;;9.52;9.23;;;23.60;73.40;;;;;;3557153;40;20487;-54
2021/05/11 03:41:44;;;;;;;9.70;9.40;;;23.60;73.30;;;;;;3557200;40;20230;-54
2021/05/11 03:44:14;;;;;;;9.70;9.40;;;23.60;73.30;;;;;;3556113;40;20942;-56
2021/05/11 03:46:41;;;;;;;10.90;10.50;;;23.60;73.20;;;;;;3556778;40;20512;-56
2021/05/11 03:49:08;;;;;;;10.83;10.43;;;23.60;73.20;;;;;;3555934;40;20479;-52
2021/05/11 03:51:36;;;;;;;10.07;9.77;;;23.60;73.10;;;;;;3557234;40;20484;-56
2021/05/11 03:54:04;;;;;;;11.07;10.67;;;23.60;73.10;;;;;;3565795;40;20923;-54
2021/05/11 03:56:30;;;;;;;10.85;10.48;;;23.60;73.10;;;;;;3565801;40;20491;-54
2021/05/11 03:58:59;;;;;;;11.38;10.98;;;23.70;73.20;;;;;;3565026;40;20240;-56
2021/05/11 04:01:25;;;;;;;10.90;10.50;;;23.70;73.10;;;;;;3564939;40;20237;-56
2021/05/11 04:03:53;;;;;;;12.00;11.50;;;23.70;73.10;;;;;;3566124;40;20486;-56
2021/05/11 04:06:20;;;;;;;11.70;11.20;;;23.70;73.00;;;;;;3565828;40;20496;-56
2021/05/11 04:08:50;;;;;;;12.17;11.53;;;23.80;73.00;;;;;;3565361;40;20481;-55
2021/05/11 04:11:32;;;;;;;11.90;11.50;;;23.80;73.00;;;;;;3565189;40;20498;-55
2021/05/11 04:14:17;;;;;;;13.13;12.43;;;23.80;72.90;;;;;;3555691;40;20481;-53
2021/05/11 04:16:44;;;;;;;12.70;12.20;;;23.80;72.80;;;;;;3563826;40;20497;-55
2021/05/11 04:19:11;;;;;;;12.20;11.80;;;23.80;72.70;;;;;;3565439;40;20479;-53
2021/05/11 04:21:38;;;;;;;11.70;11.40;;;23.90;72.80;;;;;;3564392;40;20480;-57
2021/05/11 04:24:07;;;;;;;12.20;11.73;;;23.90;72.70;;;;;;3563638;40;20900;-56
2021/05/11 04:26:35;;;;;;;12.40;11.90;;;23.90;72.70;;;;;;3563681;40;20514;-56
2021/05/11 04:29:02;;;;;;;12.27;11.87;;;23.90;72.70;;;;;;3563297;40;20479;-54
2021/05/11 04:31:29;;;;;;;12.23;11.83;;;23.90;72.70;;;;;;3564151;40;21163;-55
2021/05/11 04:33:57;;;;;;;12.97;12.47;;;23.90;72.60;;;;;;3563357;40;20473;-53
2021/05/11 04:36:24;;;;;;;12.10;11.70;;;24.00;72.60;;;;;;3563528;40;20497;-56
2021/05/11 04:38:52;;;;;;;12.27;11.87;;;24.00;72.60;;;;;;3564613;40;20484;-55
2021/05/11 04:41:18;;;;;;;12.13;11.80;;;24.00;72.50;;;;;;3563765;40;20573;-56
2021/05/11 04:43:48;;;;;;;12.80;12.40;;;24.00;72.40;;;;;;3562753;40;20964;-56
2021/05/11 04:46:25;;;;;;;12.50;12.10;;;24.00;72.40;;;;;;3561414;40;20236;-57
2021/05/11 04:48:55;;;;;;;12.50;12.00;;;24.00;72.30;;;;;;3562451;40;20602;-56
2021/05/11 04:51:23;;;;;;;11.80;11.27;;;24.10;72.40;;;;;;3561880;40;20484;-55
2021/05/11 04:53:49;;;;;;;11.87;11.40;;;24.10;72.30;;;;;;3560582;40;20493;-56
2021/05/11 04:56:16;;;;;;;11.53;11.17;;;24.10;72.20;;;;;;3560976;40;20502;-56
2021/05/11 04:58:44;;;;;;;11.30;10.90;;;24.10;72.20;;;;;;3556529;40;20481;-56
2021/05/11 05:01:12;;;;;;;11.53;11.23;;;24.10;72.20;;;;;;3561870;40;20490;-56
2021/05/11 05:03:40;;;;;;;11.17;10.87;;;24.20;72.30;;;;;;3559999;40;20493;-56
2021/05/11 05:06:07;;;;;;;11.50;11.20;;;24.20;72.20;;;;;;3560814;40;20504;-57
2021/05/11 05:08:37;;;;;;;11.97;11.57;;;24.20;72.20;;;;;;3558626;40;20495;-56
2021/05/11 05:11:04;;;;;;;11.50;11.10;;;24.20;72.20;;;;;;3559058;40;20536;-52
2021/05/11 05:13:32;;;;;;;11.77;11.37;;;24.20;72.10;;;;;;3559520;40;20469;-58
2021/05/11 05:15:59;;;;;;;12.10;11.70;;;24.20;72.10;;;;;;3559361;40;20488;-56
2021/05/11 05:18:29;;;;;;;11.70;11.30;;;24.20;72.10;;;;;;3559406;40;20475;-56
2021/05/11 05:20:56;;;;;;;12.60;12.20;;;24.20;72.00;;;;;;3557802;40;20486;-55
2021/05/11 05:23:30;;;;;;;11.70;11.40;;;24.20;72.00;;;;;;3558471;40;20490;-56
2021/05/11 05:26:02;;;;;;;11.13;10.83;;;24.30;72.10;;;;;;3558805;40;20226;-56
2021/05/11 05:28:29;;;;;;;12.10;11.70;;;24.30;72.00;;;;;;3557493;40;20496;-57
2021/05/11 05:31:00;;;;;;;11.97;11.57;;;24.30;71.90;;;;;;3556265;40;20510;-55
2021/05/11 05:33:33;;;;;;;11.87;11.47;;;24.30;71.90;;;;;;3555843;40;20735;-56
2021/05/11 05:36:01;;;;;;;11.17;10.80;;;24.30;71.80;;;;;;3555731;40;20482;-55
2021/05/11 05:38:30;;;;;;;12.17;11.77;;;24.30;71.80;;;;;;3547464;40;20486;-56
2021/05/11 05:41:00;;;;;;;11.60;11.20;;;24.40;71.90;;;;;;3555847;40;20507;-54
2021/05/11 05:43:27;;;;;;;11.37;10.97;;;24.40;71.90;;;;;;3552912;40;20235;-55
2021/05/11 05:45:56;;;;;;;11.47;11.07;;;24.40;71.80;;;;;;3556039;40;20493;-56
2021/05/11 05:48:22;;;;;;;11.23;10.75;;;24.40;71.80;;;;;;3554388;40;20487;-57
2021/05/11 05:50:54;;;;;;;11.57;11.17;;;24.40;71.80;;;;;;3554160;40;20235;-56
2021/05/11 05:53:26;;;;;;;11.00;10.70;;;24.40;71.80;;;;;;3553147;40;20523;-56
2021/05/11 05:55:53;;;;;;;10.50;10.20;;;24.40;71.80;;;;;;3553681;40;20883;-57
2021/05/11 05:58:20;;;;;;;11.67;11.17;;;24.40;71.90;;;;;;3553209;40;20588;-56
2021/05/11 06:00:52;;;;;;;10.60;10.10;;;24.40;71.90;;;;;;3552855;40;20483;-56
2021/05/11 06:03:32;;;;;;;10.20;9.90;;;24.40;72.00;;;;;;3552480;40;20480;-56
2021/05/11 06:05:59;;;;;;;11.30;10.87;;;24.40;71.90;;;;;;3551394;40;20481;-54
2021/05/11 06:08:28;;;;;;;11.53;11.13;;;24.40;72.00;;;;;;3549832;40;20611;-55
2021/05/11 06:10:58;;;;;;;11.43;11.03;;;24.40;72.10;;;;;;3552082;40;20581;-56
2021/05/11 06:13:30;;;;;;;11.33;10.87;;;24.40;72.10;;;;;;3532016;40;20877;-55
2021/05/11 06:18:37;;;;;;;11.50;11.10;;;24.40;72.30;;;;;;3530328;40;20485;-56
2021/05/11 06:21:06;;;;;;;11.30;10.82;;;24.40;72.30;;;;;;3551908;40;20491;-55
2021/05/11 06:23:33;;;;;;;11.50;11.03;;;24.40;72.40;;;;;;3550133;40;20219;-56
2021/05/11 06:26:01;;;;;;;11.20;10.70;;;24.40;72.30;;;;;;3552356;40;20484;-56
2021/05/11 06:28:28;;;;;;;11.00;10.60;;;24.40;72.30;;;;;;3551588;40;20482;-53
2021/05/11 06:30:56;;;;;;;11.70;11.10;;;24.40;72.40;;;;;;3550809;40;20609;-55
2021/05/11 06:33:23;;;;;;;11.23;10.80;;;24.40;72.50;;;;;;3541095;40;20501;-56
2021/05/11 06:35:52;;;;;;;12.03;11.53;;;24.40;72.50;;;;;;3551183;40;20482;-56
2021/05/11 06:38:20;;;;;;;11.07;10.50;;;24.40;72.50;;;;;;3550294;40;20505;-56
2021/05/11 06:40:48;;;;;;;11.60;11.10;;;24.40;72.50;;;;;;3550432;40;20502;-56
2021/05/11 06:43:24;;;;;;;11.13;10.73;;;24.40;72.60;;;;;;3539102;40;20904;-55
2021/05/11 06:48:45;;;;;;;11.20;10.80;;;24.40;72.60;;;;;;3549727;40;20502;-56
2021/05/11 06:53:58;;;;;;;11.53;11.13;;;24.40;72.70;;;;;;3551263;40;21077;-54
2021/05/11 06:56:25;;;;;;;12.27;11.70;;;24.40;72.60;;;;;;3550679;40;20494;-53
2021/05/11 06:58:52;;;;;;;12.27;11.47;;;24.40;72.70;;;;;;3550216;40;21023;-54
2021/05/11 07:01:21;;;;;;;11.50;10.97;;;24.40;72.70;;;;;;3550266;40;20592;-57
2021/05/11 07:03:48;;;;;;;11.10;10.70;;;24.40;72.70;;;;;;3548925;40;21155;-56
2021/05/11 07:06:16;;;;;;;11.30;10.90;;;24.40;72.70;;;;;;3550609;40;20478;-56
2021/05/11 07:08:47;;;;;;;11.55;11.00;;;24.40;72.80;;;;;;3551676;40;20478;-56
2021/05/11 07:11:28;;;;;;;12.37;11.80;;;24.40;72.80;;;;;;3551358;40;20228;-55
2021/05/11 07:13:54;;;;;;;11.00;10.60;;;24.40;72.90;;;;;;3550801;40;20755;-53
2021/05/11 07:16:21;;;;;;;11.17;10.77;;;24.40;72.80;;;;;;3550598;40;20493;-56
2021/05/11 07:18:48;;;;;;;10.60;10.20;;;24.40;72.90;;;;;;3549310;40;20485;-56
2021/05/11 07:21:15;;;;;;;11.10;10.70;;;24.40;72.90;;;;;;3541182;40;20745;-56
2021/05/11 07:23:42;;;;;;;12.07;11.20;;;24.40;72.90;;;;;;3549214;40;20490;-57
2021/05/11 07:26:14;;;;;;;12.13;11.70;;;24.40;72.90;;;;;;3550367;40;20486;-57
2021/05/11 07:29:00;;;;;;;11.17;10.73;;;24.40;72.90;;;;;;3550771;40;20487;-57
2021/05/11 07:31:27;;;;;;;11.10;10.70;;;24.40;72.90;;;;;;3548577;40;20489;-57
2021/05/11 07:33:56;;;;;;;11.30;10.80;;;24.40;72.90;;;;;;3548969;40;20928;-55
2021/05/11 07:36:25;;;;;;;11.98;11.43;;;24.40;73.00;;;;;;3549596;40;20474;-55
2021/05/11 07:38:54;;;;;;;12.33;11.60;;;24.40;73.10;;;;;;3551342;40;20621;-55
2021/05/11 07:41:21;;;;;;;12.60;11.67;;;24.40;73.20;;;;;;3549256;40;20497;-56
2021/05/11 07:43:52;;;;;;;11.83;11.03;;;24.40;73.20;;;;;;3547332;40;20490;-55
2021/05/11 07:46:40;;;;;;;12.80;11.90;;;24.40;73.30;;;;;;3547027;40;20527;-55
2021/05/11 07:49:31;;;;;;;12.40;11.70;;;24.40;73.40;;;;;;3548028;40;20589;-57
2021/05/11 08:05:42;;;;;;;13.40;12.70;;;24.30;73.60;;;;;;3539616;40;20235;-56
2021/05/11 08:14:25;;;;;;;13.43;12.55;;;24.30;73.80;;;;;;3549872;40;20482;-56
2021/05/11 08:16:31;;;;;;;13.30;12.23;;;24.30;74.10;;;;;;3550254;40;20483;-55
2021/05/11 08:19:05;;;;;;;13.57;12.77;;;24.30;74.10;;;;;;3548535;40;20873;-55
2021/05/11 08:22:13;;;;;;;13.40;12.70;;;24.30;74.20;;;;;;3547235;40;20816;-55
2021/05/11 08:27:33;;;;;;;15.10;11.90;;;24.30;74.40;;;;;;3542836;40;20917;-56
2021/05/11 08:29:59;;;;;;;13.48;12.63;;;24.30;74.50;;;;;;3549445;40;20483;-55
2021/05/11 08:32:29;;;;;;;13.27;12.50;;;24.30;74.70;;;;;;3546671;40;20227;-56
2021/05/11 08:34:56;;;;;;;13.63;12.73;;;24.30;74.80;;;;;;3541065;40;20493;-55
2021/05/11 08:37:23;;;;;;;13.10;12.30;;;24.30;74.80;;;;;;3548532;40;20615;-55
2021/05/11 08:39:51;;;;;;;13.30;12.60;;;24.30;74.90;;;;;;3539435;40;20501;-56
2021/05/11 08:42:18;;;;;;;13.40;12.33;;;24.30;75.00;;;;;;3544000;40;20600;-56
2021/05/11 08:44:46;;;;;;;13.80;13.07;;;24.30;75.00;;;;;;3547457;40;20649;-53
2021/05/11 08:47:17;;;;;;;13.23;12.23;;;24.30;75.10;;;;;;3549418;40;21047;-57
2021/05/11 08:49:45;;;;;;;13.10;12.20;;;24.30;75.20;;;;;;3548602;40;20486;-54
2021/05/11 08:52:20;;;;;;;13.27;12.60;;;24.30;75.20;;;;;;3546935;40;20473;-55
2021/05/11 08:55:07;;;;;;;12.70;12.00;;;24.30;75.20;;;;;;3549082;40;20505;-56
2021/05/11 09:06:18;;;;;;;14.48;13.32;;;24.30;75.50;;;;;;3546563;40;20484;-56
2021/05/11 09:25:48;;;;;;;13.55;12.57;;;24.30;75.80;;;;;;3547550;40;20240;-57
2021/05/11 09:28:32;;;;;;;13.50;12.70;;;24.30;75.90;;;;;;3548057;40;20286;-53
2021/05/11 09:31:11;;;;;;;13.33;12.43;;;24.30;75.90;;;;;;3548903;40;20527;-55
2021/05/11 09:33:46;;;;;;;13.37;12.60;;;24.30;75.80;;;;;;3546616;40;20502;-56
2021/05/11 09:59:19;;;;;;;13.67;12.97;;;24.20;75.80;;;;;;3540171;40;20492;-56
2021/05/11 10:48:38;;;;;;;14.65;13.63;;;24.20;76.10;;;;;;3544910;40;20503;-56
2021/05/11 10:51:06;;;;;;;12.40;11.80;;;24.20;76.20;;;;;;3550576;40;20227;-57
2021/05/11 10:53:42;;;;;;;12.73;11.90;;;24.20;76.10;;;;;;3548743;40;20912;-55
2021/05/11 10:56:51;;;;;;;14.10;13.20;;;24.20;76.10;;;;;;3546704;40;20493;-55
2021/05/11 10:59:27;;;;;;;13.27;12.57;;;24.20;76.10;;;;;;3547554;40;20481;-56
2021/05/11 11:01:58;;;;;;;14.20;13.20;;;24.10;75.90;;;;;;3539399;40;20644;-55
2021/05/11 11:04:29;;;;;;;13.00;12.30;;;24.20;76.00;;;;;;3546745;40;20576;-56
2021/05/11 11:07:05;;;;;;;14.27;13.27;;;24.10;76.00;;;;;;3547264;40;20952;-56
2021/05/11 11:09:33;;;;;;;13.85;13.13;;;24.10;76.00;;;;;;3538946;40;20476;-56
2021/05/11 11:12:03;;;;;;;13.37;12.57;;;24.10;76.00;;;;;;3541745;40;20232;-56
2021/05/11 11:14:38;;;;;;;14.13;13.53;;;24.10;76.10;;;;;;3549539;40;20505;-55
2021/05/11 11:17:06;;;;;;;13.17;12.37;;;24.10;76.10;;;;;;3545708;40;20485;-56
2021/05/11 11:19:35;;;;;;;13.37;12.77;;;24.10;76.10;;;;;;3529129;40;21144;-57
2021/05/11 11:24:52;;;;;;;14.57;13.70;;;24.10;76.20;;;;;;3538118;40;20485;-56
2021/05/11 11:27:26;;;;;;;14.47;13.67;;;24.10;76.20;;;;;;3538515;40;20497;-56
2021/05/11 11:30:01;;;;;;;14.13;13.30;;;24.10;76.40;;;;;;3538048;40;20480;-55
2021/05/11 11:32:30;;;;;;;15.93;14.93;;;24.10;76.50;;;;;;3534655;40;20314;-57
2021/05/11 11:34:59;;;;;;;16.20;15.17;;;24.10;76.50;;;;;;3537762;40;20232;-55
2021/05/11 11:37:27;;;;;;;16.37;15.20;;;24.20;76.70;;;;;;3537912;40;20560;-56
2021/05/11 11:39:57;;;;;;;16.17;15.27;;;24.10;76.70;;;;;;3539490;40;20483;-57
2021/05/11 11:42:25;;;;;;;17.57;16.37;;;24.20;76.80;;;;;;3539005;40;20494;-56
2021/05/11 11:44:55;;;;;;;16.80;15.80;;;24.20;76.80;;;;;;3539494;40;20495;-57
2021/05/11 11:47:23;;;;;;;16.80;15.57;;;24.20;76.80;;;;;;3538850;40;20491;-56
2021/05/11 11:49:54;;;;;;;16.87;15.63;;;24.20;76.90;;;;;;3539631;40;20918;-57
2021/05/11 11:52:28;;;;;;;16.63;15.33;;;24.10;76.80;;;;;;3541115;40;20484;-55
2021/05/11 11:55:12;;;;;;;17.77;16.58;;;24.20;77.00;;;;;;3539875;40;20484;-57
2021/05/11 11:57:46;;;;;;;17.07;15.90;;;24.10;76.90;;;;;;3539242;40;20239;-56
2021/05/11 12:00:15;;;;;;;18.02;16.95;;;24.20;77.10;;;;;;3539497;40;20491;-56
2021/05/11 12:02:54;;;;;;;19.30;17.70;;;24.20;77.30;;;;;;3536083;40;20235;-56
2021/05/11 12:05:22;;;;;;;18.57;17.13;;;24.10;77.20;;;;;;3540246;40;20517;-56
2021/05/11 12:08:00;;;;;;;17.93;16.53;;;24.20;77.30;;;;;;3538510;40;20808;-55
2021/05/11 12:10:27;;;;;;;17.77;16.50;;;24.20;77.40;;;;;;3540605;40;20490;-56
2021/05/11 12:12:56;;;;;;;17.43;16.43;;;24.10;77.20;;;;;;3544212;40;20580;-56
2021/05/11 12:15:24;;;;;;;17.17;16.07;;;24.10;77.30;;;;;;3549748;40;20479;-54
2021/05/11 12:18:07;;;;;;;17.90;16.60;;;24.10;77.30;;;;;;3540673;40;20486;-55
2021/05/11 12:20:36;;;;;;;17.50;16.30;;;24.10;77.40;;;;;;3542784;40;20499;-55
2021/05/11 12:23:11;;;;;;;16.40;15.30;;;24.10;77.40;;;;;;3547164;40;21132;-56
2021/05/11 12:25:39;;;;;;;17.40;16.00;;;24.10;77.40;;;;;;3552955;40;20529;-55
2021/05/11 12:28:07;;;;;;;16.83;15.50;;;24.10;77.40;;;;;;3549007;40;20539;-57
2021/05/11 12:30:39;;;;;;;17.57;15.87;;;24.10;77.50;;;;;;3547957;40;20959;-54
2021/05/11 12:33:10;;;;;;;17.27;15.83;;;24.10;77.50;;;;;;3549532;40;20747;-55
2021/05/11 12:35:39;;;;;;;18.47;16.87;;;24.10;77.50;;;;;;3549270;40;20473;-56
2021/05/11 12:38:20;;;;;;;17.27;16.07;;;24.10;77.50;;;;;;3549336;40;20622;-55
2021/05/11 12:40:57;;;;;;;16.17;15.17;;;24.10;77.50;;;;;;3548243;40;20569;-56
2021/05/11 12:43:44;;;;;;;16.03;14.93;;;24.10;77.50;;;;;;3546910;40;20513;-56
2021/05/11 12:46:20;;;;;;;15.50;14.60;;;24.10;77.60;;;;;;3550531;40;20480;-55
2021/05/11 12:48:53;;;;;;;16.00;15.00;;;24.10;77.50;;;;;;3550297;40;20486;-53
2021/05/11 12:51:33;;;;;;;16.30;15.23;;;24.10;77.60;;;;;;3550560;40;20864;-54
2021/05/11 12:54:25;;;;;;;16.97;15.87;;;24.10;77.60;;;;;;3551870;40;20856;-55
2021/05/11 12:57:09;;;;;;;16.97;15.80;;;24.00;77.60;;;;;;3541985;40;20482;-55
2021/05/11 12:59:43;;;;;;;16.33;15.30;;;24.10;77.60;;;;;;3551338;40;21117;-56
2021/05/11 13:02:27;;;;;;;18.00;16.50;;;24.00;77.60;;;;;;3548378;40;20489;-56
2021/05/11 13:05:05;;;;;;;16.07;15.03;;;24.00;77.60;;;;;;3548948;40;20492;-56
2021/05/11 13:16:14;;;;;;;15.73;14.63;;;24.00;77.70;;;;;;3528459;40;20740;-55
2021/05/11 13:22:04;;;;;;;18.07;15.93;;;24.00;77.60;;;;;;3530384;40;20485;-56
2021/05/11 13:27:30;;;;;;;16.10;14.90;;;24.00;77.70;;;;;;3533523;40;21211;-55
2021/05/11 13:30:07;;;;;;;15.73;14.60;;;24.00;77.80;;;;;;3531910;40;20488;-53
2021/05/11 13:32:46;;;;;;;15.40;14.23;;;24.00;77.80;;;;;;3533093;40;20499;-55
2021/05/11 13:35:13;;;;;;;16.10;14.93;;;24.00;77.80;;;;;;3530479;40;20547;-53
2021/05/11 13:37:40;;;;;;;15.07;14.17;;;24.00;77.90;;;;;;3530894;40;20479;-56
2021/05/11 13:40:08;;;;;;;14.77;13.80;;;24.00;77.90;;;;;;3539759;40;21349;-55
2021/05/11 13:42:37;;;;;;;14.43;13.52;;;24.00;77.90;;;;;;3552262;40;20517;-56
2021/05/11 13:45:06;;;;;;;16.03;15.13;;;24.00;78.00;;;;;;3552632;40;20228;-56
2021/05/11 13:47:33;;;;;;;14.50;13.57;;;24.00;78.00;;;;;;3549687;40;21370;-56
2021/05/11 13:50:04;;;;;;;16.07;15.13;;;24.00;77.90;;;;;;3547985;40;20525;-55
2021/05/11 13:52:32;;;;;;;15.30;14.30;;;24.00;77.90;;;;;;3548559;40;20509;-54
2021/05/11 13:55:04;;;;;;;15.83;14.83;;;24.00;78.00;;;;;;3553383;40;20498;-56
2021/05/11 14:03:03;;;;;;;15.00;14.00;;;24.00;78.00;;;;;;3548454;40;20496;-54
2021/05/11 14:05:29;;;;;;;15.00;13.77;;;24.00;78.00;;;;;;3540220;40;20586;-56
2021/05/11 14:07:56;;;;;;;15.40;14.20;;;24.00;78.00;;;;;;3547087;40;20472;-54
2021/05/11 14:10:22;;;;;;;14.37;13.47;;;24.00;78.10;;;;;;3553326;40;20484;-55
2021/05/11 14:12:50;;;;;;;14.13;13.00;;;24.00;78.10;;;;;;3554211;40;20481;-53
2021/05/11 14:15:17;;;;;;;15.47;14.37;;;24.00;78.10;;;;;;3555818;40;20875;-55
2021/05/11 14:17:45;;;;;;;16.23;15.13;;;24.00;78.10;;;;;;3555743;40;20487;-55
2021/05/11 14:20:13;;;;;;;16.43;15.43;;;24.00;78.20;;;;;;3554827;40;20236;-55
2021/05/11 14:22:40;;;;;;;15.00;13.75;;;24.00;78.10;;;;;;3556354;40;21167;-55
2021/05/11 14:25:07;;;;;;;15.00;14.00;;;24.00;78.10;;;;;;3556202;40;20247;-56
2021/05/11 14:27:34;;;;;;;14.50;13.60;;;24.00;78.20;;;;;;3554694;40;20481;-55
2021/05/11 14:30:03;;;;;;;16.00;14.80;;;24.00;78.10;;;;;;3553013;40;20492;-53
2021/05/11 14:32:32;;;;;;;15.60;14.60;;;24.00;78.20;;;;;;3553516;40;20493;-55
2021/05/11 14:35:00;;;;;;;15.17;14.17;;;24.00;78.20;;;;;;3547715;40;20505;-55
2021/05/11 14:37:27;;;;;;;14.90;13.90;;;24.00;78.30;;;;;;3545078;40;20601;-57
2021/05/11 14:39:55;;;;;;;16.02;14.98;;;24.00;78.20;;;;;;3545405;40;20841;-55
2021/05/11 14:42:22;;;;;;;14.93;13.82;;;24.00;78.30;;;;;;3546244;40;20241;-53
2021/05/11 14:44:52;;;;;;;15.47;14.37;;;24.00;78.30;;;;;;3546514;40;20279;-56
2021/05/11 14:47:20;;;;;;;16.03;14.67;;;24.00;78.30;;;;;;3546529;40;21178;-55
2021/05/11 14:49:49;;;;;;;16.20;14.80;;;24.00;78.30;;;;;;3548568;40;20485;-56
2021/05/11 14:52:16;;;;;;;14.40;13.30;;;24.00;78.30;;;;;;3546556;40;20484;-57
2021/05/11 14:54:43;;;;;;;15.63;14.40;;;24.00;78.30;;;;;;3545848;40;20955;-56
2021/05/11 14:57:15;;;;;;;15.53;14.63;;;24.00;78.30;;;;;;3546323;40;20560;-56
2021/05/11 14:59:43;;;;;;;15.57;14.27;;;24.00;78.40;;;;;;3545431;40;20535;-54
2021/05/11 15:02:13;;;;;;;14.80;13.70;;;24.00;78.40;;;;;;3546081;40;20900;-56
2021/05/11 15:04:40;;;;;;;15.20;13.93;;;24.00;78.40;;;;;;3547119;40;20501;-56
2021/05/11 15:07:10;;;;;;;14.70;13.70;;;24.00;78.40;;;;;;3547673;40;21170;-56
2021/05/11 15:09:36;;;;;;;20.20;14.13;;;24.00;78.40;;;;;;3549088;40;20234;-56
2021/05/11 15:12:03;;;;;;;14.18;13.20;;;24.00;78.40;;;;;;3547772;40;20493;-54
2021/05/11 15:14:31;;;;;;;14.35;13.35;;;24.00;78.50;;;;;;3545559;40;20233;-55
2021/05/11 15:17:09;;;;;;;13.63;12.73;;;24.00;78.40;;;;;;3547365;40;20248;-53
2021/05/11 15:19:38;;;;;;;16.93;15.60;;;24.00;78.40;;;;;;3547520;40;20494;-56
2021/05/11 15:22:05;;;;;;;14.90;13.83;;;23.90;79.00;;;;;;3547054;40;20506;-55
2021/05/11 15:24:34;;;;;;;15.23;14.23;;;23.90;78.90;;;;;;3547839;40;20915;-57
2021/05/11 15:27:00;;;;;;;14.87;13.67;;;23.90;78.80;;;;;;3548982;40;20499;-56
2021/05/11 15:29:28;;;;;;;15.47;14.07;;;23.90;78.80;;;;;;3540760;40;20489;-55
2021/05/11 15:31:57;;;;;;;15.53;14.30;;;23.90;78.80;;;;;;3546544;40;20489;-54
2021/05/11 15:34:25;;;;;;;15.07;13.77;;;23.90;78.70;;;;;;3547224;40;20538;-55
2021/05/11 15:36:54;;;;;;;15.10;14.00;;;23.90;78.70;;;;;;3547931;40;20494;-58
2021/05/11 15:39:22;;;;;;;15.17;14.07;;;23.90;78.60;;;;;;3548836;40;20488;-56
2021/05/11 15:41:50;;;;;;;14.20;13.40;;;23.90;78.70;;;;;;3548394;40;20626;-57
2021/05/11 15:44:17;;;;;;;13.97;13.13;;;23.90;79.50;;;;;;3536857;40;20236;-56
2021/05/11 15:46:45;;;;;;;14.23;13.20;;;23.90;78.80;;;;;;3545462;40;20831;-56
2021/05/11 15:49:13;;;;;;;15.10;14.10;;;23.90;78.90;;;;;;3547340;40;20488;-56